AZ90 weather

Hangar Haciendas Airpark
Laveen, Arizona, United States

Public forecast

Using degrees Fahrenheit for public forecast. Weather courtesy of forecast.io.

Closest aviation weather report (METAR) to Hangar Haciendas Airpark

Closest report is Phoenix Sky Harbor International Airport, 7.5 nm (13.9 km) NE. Retrieved 2020/07/08 00:51 UTC (50 minutes ago):

KPHX 080051Z 23003KT 10SM FEW120 43/08 A2968 RMK AO2 SLP028 T04280078

Closest aviation forecast (TAF) to Hangar Haciendas Airpark

Closest forecast is Phoenix Sky Harbor International Airport, 7.5 nm (13.9 km) NE. Retrieved 2020-07-08 00:39 UTC (1 hour ago):

TAF KPHX 072336Z 0800/0906 28007G18KT P6SM FEW120 FM080300 25006KT P6SM FEW120 FM081000 10004KT P6SM SKC FM081700 18007KT P6SM FEW120 FM082200 26007KT P6SM SKC